createdAt,value
2018-12-04T03:14:25.945Z,999.79
2018-12-04T03:15:25.984Z,999.78
2018-12-04T03:16:25.903Z,999.80
2018-12-04T03:17:25.873Z,999.80
2018-12-04T03:18:25.868Z,999.81
2018-12-04T03:19:25.871Z,999.80
2018-12-04T03:20:25.854Z,999.85
2018-12-04T03:21:25.850Z,999.75
2018-12-04T03:22:25.831Z,999.85
2018-12-04T03:23:25.829Z,999.87
2018-12-04T03:24:25.836Z,999.94
2018-12-04T03:25:25.819Z,999.90
2018-12-04T03:26:25.812Z,999.93
2018-12-04T03:27:25.803Z,999.92
2018-12-04T03:28:25.798Z,999.95
2018-12-04T03:29:25.795Z,999.99
2018-12-04T03:30:25.782Z,999.92
2018-12-04T03:31:25.784Z,999.93
2018-12-04T03:32:25.799Z,999.92
2018-12-04T03:33:25.770Z,999.88
2018-12-04T03:34:25.792Z,999.83
2018-12-04T03:35:25.764Z,999.87
2018-12-04T03:36:25.752Z,999.89
2018-12-04T03:37:25.754Z,999.91
2018-12-04T03:38:25.750Z,999.92
2018-12-04T03:39:25.735Z,1000.03
2018-12-04T03:40:25.735Z,1000.04
2018-12-04T03:41:25.724Z,1000.09
2018-12-04T03:42:25.737Z,1000.17
2018-12-04T03:43:25.715Z,1000.17
2018-12-04T03:44:25.716Z,1000.20
2018-12-04T03:45:25.715Z,1000.18
2018-12-04T03:46:25.700Z,1000.22
2018-12-04T03:47:25.692Z,1000.23
2018-12-04T03:48:25.695Z,1000.26
2018-12-04T03:49:25.689Z,1000.22
2018-12-04T03:50:25.676Z,1000.24
2018-12-04T03:51:25.673Z,1000.31
2018-12-04T03:52:25.672Z,1000.31
2018-12-04T03:53:25.679Z,1000.29
2018-12-04T03:54:25.661Z,1000.30
2018-12-04T03:55:25.663Z,1000.41
2018-12-04T03:56:25.658Z,1000.44
2018-12-04T03:57:25.671Z,1000.46
2018-12-04T03:58:25.646Z,1000.45
2018-12-04T03:59:25.650Z,1000.46
2018-12-04T04:00:25.650Z,1000.48
2018-12-04T04:01:25.627Z,1000.50
2018-12-04T04:02:25.628Z,1000.53
2018-12-04T04:03:25.610Z,1000.55
2018-12-04T04:04:25.660Z,1000.53
2018-12-04T04:05:25.601Z,1000.50
2018-12-04T04:06:25.613Z,1000.58
2018-12-04T04:07:25.595Z,1000.60
2018-12-04T04:08:25.603Z,1000.61
2018-12-04T04:09:25.583Z,1000.65
2018-12-04T04:10:25.581Z,1000.63
2018-12-04T04:11:25.577Z,1000.69
2018-12-04T04:12:25.569Z,1000.66
2018-12-04T04:13:25.565Z,1000.76
2018-12-04T04:14:25.564Z,1000.77
2018-12-04T04:15:25.556Z,1000.81
2018-12-04T04:16:25.548Z,1000.82
2018-12-04T04:17:25.547Z,1000.82
2018-12-04T04:18:25.549Z,1000.88
2018-12-04T04:19:25.541Z,1000.90
2018-12-04T04:20:25.535Z,1000.86
2018-12-04T04:21:25.527Z,1000.89
2018-12-04T04:22:25.533Z,1000.92
2018-12-04T04:23:25.514Z,1000.98
2018-12-04T04:24:25.505Z,1000.97
2018-12-04T04:25:25.511Z,1001.00
2018-12-04T04:26:25.499Z,1001.11
2018-12-04T04:27:25.496Z,1001.06
2018-12-04T04:28:25.492Z,1001.17
2018-12-04T04:29:25.486Z,1001.17
2018-12-04T04:30:25.480Z,1001.28
2018-12-04T04:31:25.477Z,1001.27
2018-12-04T04:32:25.470Z,1001.32
2018-12-04T04:33:25.468Z,1001.29
2018-12-04T04:34:25.460Z,1001.31
2018-12-04T04:35:25.457Z,1001.34
2018-12-04T04:36:25.469Z,1001.36
2018-12-04T04:37:25.445Z,1001.35
2018-12-04T04:38:25.440Z,1001.33
2018-12-04T04:39:25.432Z,1001.29
2018-12-04T04:40:25.436Z,1001.26
2018-12-04T04:41:25.431Z,1001.30
2018-12-04T04:42:25.416Z,1001.38
2018-12-04T04:43:25.412Z,1001.38
2018-12-04T04:44:25.407Z,1001.44
2018-12-04T04:45:25.402Z,1001.45
2018-12-04T04:46:25.404Z,1001.47
2018-12-04T04:47:25.393Z,1001.51
2018-12-04T04:48:25.389Z,1001.55
2018-12-04T04:49:25.391Z,1001.56
2018-12-04T04:50:25.388Z,1001.49
2018-12-04T04:51:25.403Z,1001.51
2018-12-04T04:52:25.378Z,1001.53
2018-12-04T04:53:25.367Z,1001.54
2018-12-04T04:54:25.375Z,1001.57
2018-12-04T04:55:25.357Z,1001.57
2018-12-04T04:56:25.345Z,1001.59
2018-12-04T04:57:25.346Z,1001.59
2018-12-04T04:58:25.335Z,1001.56
2018-12-04T04:59:25.369Z,1001.60
2018-12-04T05:00:25.339Z,1001.61
2018-12-04T05:01:25.323Z,1001.66
2018-12-04T05:02:25.320Z,1001.67
2018-12-04T05:03:25.316Z,1001.66
2018-12-04T05:04:25.309Z,1001.72
2018-12-04T05:05:25.336Z,1001.77
2018-12-04T05:06:25.298Z,1001.78
2018-12-04T05:07:25.291Z,1001.76
2018-12-04T05:08:25.291Z,1001.76
2018-12-04T05:09:25.291Z,1001.83
2018-12-04T05:10:25.276Z,1001.88
2018-12-04T05:11:25.304Z,1001.90
2018-12-04T05:12:25.272Z,1001.91
2018-12-04T05:13:25.266Z,1001.94
2018-12-04T05:14:25.256Z,1001.96
2018-12-04T05:15:25.291Z,1001.94
2018-12-04T05:16:25.268Z,1001.97
2018-12-04T05:17:25.253Z,1001.96
2018-12-04T05:18:25.244Z,1002.00
2018-12-04T05:19:25.229Z,1002.03
2018-12-04T05:20:25.236Z,1002.03
2018-12-04T05:21:25.275Z,1002.00
2018-12-04T05:22:25.220Z,1002.02
2018-12-04T05:23:25.212Z,1002.02
2018-12-04T05:24:25.210Z,1002.04
2018-12-04T05:25:25.199Z,1002.05
2018-12-04T05:26:25.202Z,1002.07
2018-12-04T05:27:25.198Z,1002.04
2018-12-04T05:28:25.194Z,1002.11
2018-12-04T05:29:25.179Z,1002.12
2018-12-04T05:30:25.178Z,1002.14
2018-12-04T05:31:25.176Z,1002.17
2018-12-04T05:32:25.189Z,1002.19
2018-12-04T05:33:25.162Z,1002.20
2018-12-04T05:34:25.175Z,1002.17
2018-12-04T05:35:25.167Z,1002.19
2018-12-04T05:36:25.147Z,1002.19
2018-12-04T05:37:25.137Z,1002.20
2018-12-04T05:38:25.148Z,1002.21
2018-12-04T05:39:25.138Z,1002.22
2018-12-04T05:40:25.129Z,1002.24
2018-12-04T05:41:25.120Z,1002.22
2018-12-04T05:42:25.113Z,1002.23
2018-12-04T05:43:25.117Z,1002.27
2018-12-04T05:44:25.132Z,1002.28
2018-12-04T05:45:25.094Z,1002.21
2018-12-04T05:46:25.163Z,1002.27
2018-12-04T05:47:25.110Z,1002.27
2018-12-04T05:48:25.087Z,1002.33
2018-12-04T05:49:25.079Z,1002.35
2018-12-04T05:50:25.077Z,1002.40
2018-12-04T05:51:25.075Z,1002.36
2018-12-04T05:52:25.068Z,1002.41
2018-12-04T05:53:25.064Z,1002.44
2018-12-04T05:54:25.063Z,1002.46
2018-12-04T05:55:25.051Z,1002.50
2018-12-04T05:56:25.044Z,1002.56
2018-12-04T05:57:25.035Z,1002.55
2018-12-04T05:58:25.037Z,1002.58
2018-12-04T05:59:25.029Z,1002.61
2018-12-04T06:00:25.033Z,1002.69
2018-12-04T06:01:25.019Z,1002.68
2018-12-04T06:02:25.008Z,1002.69
2018-12-04T06:03:25.009Z,1002.66
2018-12-04T06:04:25.005Z,1002.72
2018-12-04T06:05:25.019Z,1002.74
2018-12-04T06:06:24.998Z,1002.75
2018-12-04T06:07:24.986Z,1002.77
2018-12-04T06:08:25.007Z,1002.85
2018-12-04T06:09:24.978Z,1002.88
2018-12-04T06:10:24.965Z,1002.88
2018-12-04T06:11:24.988Z,1002.89
2018-12-04T06:12:24.954Z,1002.87
2018-12-04T06:13:25.031Z,1002.90
2018-12-04T06:14:24.979Z,1002.91
2018-12-04T06:15:24.947Z,1002.90
2018-12-04T06:16:24.957Z,1002.96
2018-12-04T06:17:24.945Z,1003.00
2018-12-04T06:18:24.948Z,1002.94
2018-12-04T06:19:24.949Z,1002.97
2018-12-04T06:20:24.941Z,1002.98
2018-12-04T06:21:24.908Z,1002.95
2018-12-04T06:22:24.912Z,1002.96
2018-12-04T06:23:24.898Z,1002.92
2018-12-04T06:24:24.894Z,1002.95
2018-12-04T06:25:24.889Z,1002.97
2018-12-04T06:26:24.883Z,1002.98
2018-12-04T06:27:24.875Z,1003.02
2018-12-04T06:28:24.874Z,1003.03
2018-12-04T06:29:24.889Z,1003.08
2018-12-04T06:30:24.891Z,1003.11
2018-12-04T06:31:24.862Z,1003.14
2018-12-04T06:32:24.848Z,1003.12
2018-12-04T06:33:24.858Z,1003.13
2018-12-04T06:34:24.839Z,1003.19
2018-12-04T06:35:24.856Z,1003.24
2018-12-04T06:36:24.826Z,1003.31
2018-12-04T06:37:24.824Z,1003.35
2018-12-04T06:38:24.824Z,1003.36
2018-12-04T06:39:24.847Z,1003.38
2018-12-04T06:40:24.844Z,1003.47
2018-12-04T06:41:24.808Z,1003.40
2018-12-04T06:42:24.809Z,1003.44
2018-12-04T06:43:24.833Z,1003.49
2018-12-04T06:44:24.824Z,1003.47
2018-12-04T06:45:24.909Z,1003.49
2018-12-04T06:46:24.792Z,1003.54
2018-12-04T06:47:24.797Z,1003.49
2018-12-04T06:48:24.761Z,1003.55
2018-12-04T06:49:24.785Z,1003.52
2018-12-04T06:50:24.774Z,1003.56
2018-12-04T06:51:24.778Z,1003.59
2018-12-04T06:52:24.788Z,1003.57
2018-12-04T06:53:24.783Z,1003.63
2018-12-04T06:54:24.792Z,1003.63
2018-12-04T06:55:24.758Z,1003.65
2018-12-04T06:56:24.725Z,1003.67
2018-12-04T06:57:24.719Z,1003.69
2018-12-04T06:58:24.716Z,1003.73
2018-12-04T06:59:24.717Z,1003.80
2018-12-04T07:00:24.726Z,1003.79
2018-12-04T07:01:24.722Z,1003.90
2018-12-04T07:02:24.737Z,1003.91
2018-12-04T07:03:24.685Z,1003.94
2018-12-04T07:04:24.701Z,1003.91
2018-12-04T07:05:24.668Z,1004.00
2018-12-04T07:06:24.659Z,1004.01
2018-12-04T07:07:24.661Z,1004.06
2018-12-04T07:08:24.702Z,1004.10
2018-12-04T07:09:24.678Z,1004.17
2018-12-04T07:10:24.659Z,1004.14
2018-12-04T07:11:24.633Z,1004.14
2018-12-04T07:12:24.623Z,1004.17
2018-12-04T07:13:24.625Z,1004.18
2018-12-04T07:14:24.616Z,1004.20
2018-12-04T07:15:24.608Z,1004.23
2018-12-04T07:16:24.621Z,1004.23
2018-12-04T07:17:24.599Z,1004.25
2018-12-04T07:18:24.594Z,1004.28
2018-12-04T07:19:24.594Z,1004.32
2018-12-04T07:20:24.584Z,1004.34
2018-12-04T07:21:24.583Z,1004.39
2018-12-04T07:22:24.576Z,1004.39
2018-12-04T07:23:24.574Z,1004.47
2018-12-04T07:24:24.560Z,1004.52
2018-12-04T07:25:24.564Z,1004.49
2018-12-04T07:26:24.549Z,1004.54
2018-12-04T07:27:24.549Z,1004.53
2018-12-04T07:28:24.542Z,1004.51
2018-12-04T07:29:24.534Z,1004.55
2018-12-04T07:30:24.529Z,1004.54
2018-12-04T07:31:24.531Z,1004.58
2018-12-04T07:32:24.530Z,1004.63
2018-12-04T07:33:24.516Z,1004.59
2018-12-04T07:34:24.523Z,1004.57
2018-12-04T07:35:24.514Z,1004.59
2018-12-04T07:36:24.512Z,1004.60
2018-12-04T07:37:24.486Z,1004.58
2018-12-04T07:38:24.487Z,1004.64
2018-12-04T07:39:24.481Z,1004.65
2018-12-04T07:40:24.476Z,1004.67
2018-12-04T07:41:24.468Z,1004.71
2018-12-04T07:42:24.463Z,1004.71
2018-12-04T07:43:24.474Z,1004.81
2018-12-04T07:44:24.450Z,1004.82
2018-12-04T07:45:24.453Z,1004.83
2018-12-04T07:46:24.433Z,1004.86
2018-12-04T07:47:24.432Z,1004.83
2018-12-04T07:48:24.431Z,1004.84
2018-12-04T07:49:24.422Z,1004.83
2018-12-04T07:50:24.422Z,1004.82
2018-12-04T07:51:24.424Z,1004.85
2018-12-04T07:52:24.404Z,1004.92
2018-12-04T07:53:24.398Z,1004.91
2018-12-04T07:54:24.389Z,1004.93
2018-12-04T07:55:24.388Z,1005.00
2018-12-04T07:56:24.385Z,1005.03
2018-12-04T07:57:24.373Z,1005.05
2018-12-04T07:58:24.389Z,1005.10
2018-12-04T07:59:24.375Z,1005.15
2018-12-04T08:00:24.357Z,1005.19
2018-12-04T08:01:24.355Z,1005.23
2018-12-04T08:02:24.349Z,1005.25
2018-12-04T08:03:24.342Z,1005.27
2018-12-04T08:04:24.363Z,1005.28
2018-12-04T08:05:24.327Z,1005.28
2018-12-04T08:06:24.330Z,1005.26
2018-12-04T08:07:24.320Z,1005.30
2018-12-04T08:08:24.346Z,1005.36
2018-12-04T08:09:24.355Z,1005.47
2018-12-04T08:10:24.309Z,1005.53
2018-12-04T08:11:24.309Z,1005.54
2018-12-04T08:12:24.286Z,1005.45
2018-12-04T08:13:24.283Z,1005.57
2018-12-04T08:14:24.282Z,1005.58
2018-12-04T08:15:24.276Z,1005.60
2018-12-04T08:16:24.282Z,1005.60
2018-12-04T08:17:24.273Z,1005.63
2018-12-04T08:18:24.254Z,1005.69
2018-12-04T08:19:24.248Z,1005.78
2018-12-04T08:20:24.242Z,1005.73
2018-12-04T08:21:24.248Z,1005.79
2018-12-04T08:22:24.246Z,1005.81
2018-12-04T08:23:24.252Z,1005.78
2018-12-04T08:24:24.226Z,1005.80
2018-12-04T08:25:24.217Z,1005.80
2018-12-04T08:26:24.235Z,1005.83
2018-12-04T08:27:24.208Z,1005.86
2018-12-04T08:28:24.205Z,1005.86
2018-12-04T08:29:24.205Z,1005.91
2018-12-04T08:30:24.190Z,1005.96
2018-12-04T08:31:24.195Z,1005.94
2018-12-04T08:32:24.201Z,1005.97
2018-12-04T08:33:24.176Z,1005.97
2018-12-04T08:34:24.185Z,1005.99
2018-12-04T08:35:24.174Z,1006.05
2018-12-04T08:36:24.187Z,1006.04
2018-12-04T08:37:24.152Z,1006.08
2018-12-04T08:38:24.143Z,1006.09
2018-12-04T08:39:24.154Z,1006.13
2018-12-04T08:40:24.145Z,1006.13
2018-12-04T08:41:24.180Z,1006.19
2018-12-04T08:42:24.128Z,1006.22
2018-12-04T08:43:24.123Z,1006.23
2018-12-04T08:44:24.114Z,1006.25
2018-12-04T08:45:24.120Z,1006.25
2018-12-04T08:46:24.113Z,1006.29
2018-12-04T08:47:24.111Z,1006.28
2018-12-04T08:48:24.092Z,1006.25
2018-12-04T08:49:24.087Z,1006.27
2018-12-04T08:50:24.086Z,1006.28
2018-12-04T08:51:24.075Z,1006.26
2018-12-04T08:52:24.075Z,1006.31
2018-12-04T08:53:24.076Z,1006.35
2018-12-04T08:54:24.067Z,1006.33
2018-12-04T08:55:24.100Z,1006.35
2018-12-04T08:56:24.073Z,1006.36
2018-12-04T08:57:24.049Z,1006.35
2018-12-04T08:58:24.076Z,1006.39
2018-12-04T08:59:24.047Z,1006.42
2018-12-04T09:00:24.039Z,1006.45
2018-12-04T09:01:24.032Z,1006.47
2018-12-04T09:02:24.023Z,1006.50
2018-12-04T09:03:24.017Z,1006.52
2018-12-04T09:04:24.029Z,1006.52
2018-12-04T09:05:24.010Z,1006.57
2018-12-04T09:06:24.006Z,1006.60
2018-12-04T09:07:24.002Z,1006.63
2018-12-04T09:08:23.994Z,1006.65
2018-12-04T09:09:23.993Z,1006.67
2018-12-04T09:10:24.003Z,1006.67
2018-12-04T09:11:23.990Z,1006.75
2018-12-04T09:12:23.980Z,1006.78
2018-12-04T09:13:23.973Z,1006.76
2018-12-04T09:14:23.965Z,1006.79
2018-12-04T09:15:23.969Z,1006.82
2018-12-04T09:16:23.953Z,1006.80
2018-12-04T09:17:33.592Z,1006.82
2018-12-04T09:19:26.437Z,1006.83
2018-12-04T09:20:26.016Z,1006.84
2018-12-04T09:22:10.715Z,1006.80
2018-12-04T09:23:18.325Z,1006.81
2018-12-04T09:24:19.345Z,1006.83
2018-12-04T09:26:14.156Z,1006.81
2018-12-04T09:27:05.687Z,1006.84
2018-12-04T09:28:04.061Z,1006.84
2018-12-04T09:29:04.063Z,1006.88
2018-12-04T09:30:04.052Z,1006.89
2018-12-04T09:31:04.052Z,1006.87
2018-12-04T09:32:04.043Z,1006.89
2018-12-04T09:33:04.027Z,1006.92
2018-12-04T09:34:04.048Z,1006.93
2018-12-04T09:35:04.037Z,1007.01
2018-12-04T09:36:04.028Z,1007.05
2018-12-04T09:37:04.019Z,1007.05
2018-12-04T09:38:04.012Z,1007.06
2018-12-04T09:39:04.001Z,1007.12
2018-12-04T09:40:03.999Z,1007.15
2018-12-04T09:41:04.000Z,1007.13
2018-12-04T09:42:03.986Z,1007.17
2018-12-04T09:43:04.258Z,1007.17
2018-12-04T09:44:03.979Z,1007.19
2018-12-04T09:45:03.974Z,1007.15
2018-12-04T09:46:03.972Z,1007.12
2018-12-04T09:47:03.964Z,1007.20
2018-12-04T09:48:03.964Z,1007.25
2018-12-04T09:49:03.962Z,1007.25
2018-12-04T09:50:03.949Z,1007.28
2018-12-04T09:51:03.953Z,1007.31
2018-12-04T09:52:03.962Z,1007.32
2018-12-04T09:53:03.933Z,1007.28
2018-12-04T09:54:03.934Z,1007.25
2018-12-04T09:55:03.923Z,1007.30
2018-12-04T09:56:03.936Z,1007.33
2018-12-04T09:57:03.918Z,1007.36
2018-12-04T09:58:03.915Z,1007.36
2018-12-04T09:59:03.929Z,1007.36
2018-12-04T10:00:03.906Z,1007.34
2018-12-04T10:01:03.915Z,1007.38
2018-12-04T10:02:03.895Z,1007.41
2018-12-04T10:03:03.894Z,1007.42
2018-12-04T10:04:03.890Z,1007.44
2018-12-04T10:05:03.889Z,1007.45
2018-12-04T10:06:03.880Z,1007.48
2018-12-04T10:07:03.865Z,1007.46
2018-12-04T10:08:03.860Z,1007.39
2018-12-04T10:09:03.864Z,1007.51
2018-12-04T10:10:03.848Z,1007.54
2018-12-04T10:11:03.860Z,1007.61
2018-12-04T10:12:03.838Z,1007.60
2018-12-04T10:13:03.835Z,1007.59
2018-12-04T10:14:03.829Z,1007.62
2018-12-04T10:15:03.855Z,1007.59
2018-12-04T10:16:03.854Z,1007.63
2018-12-04T10:17:11.460Z,1007.63
2018-12-04T10:18:57.228Z,1007.67
2018-12-04T10:19:57.212Z,1007.66
2018-12-04T10:20:57.202Z,1007.65
2018-12-04T10:21:57.200Z,1007.69
2018-12-04T10:22:57.204Z,1007.68
2018-12-04T10:23:57.215Z,1007.66
2018-12-04T10:24:57.179Z,1007.71
2018-12-04T10:25:57.178Z,1007.74
2018-12-04T10:26:57.174Z,1007.77
2018-12-04T10:27:57.166Z,1007.78
2018-12-04T10:28:57.172Z,1007.75
2018-12-04T10:29:57.165Z,1007.76
2018-12-04T10:30:57.157Z,1007.80
2018-12-04T10:31:57.152Z,1007.80
2018-12-04T10:32:57.144Z,1007.81
2018-12-04T10:33:57.141Z,1007.79
2018-12-04T10:34:57.139Z,1007.79
2018-12-04T10:35:57.128Z,1007.80
2018-12-04T10:36:57.130Z,1007.78
2018-12-04T10:37:57.133Z,1007.81
2018-12-04T10:38:57.115Z,1007.77
2018-12-04T10:39:57.107Z,1007.78
2018-12-04T10:40:57.101Z,1007.76
2018-12-04T10:41:57.106Z,1007.78
2018-12-04T10:42:57.094Z,1007.81
2018-12-04T10:43:57.094Z,1007.86
2018-12-04T10:44:57.088Z,1007.83
2018-12-04T10:45:57.108Z,1007.92
2018-12-04T10:46:57.101Z,1007.90
2018-12-04T10:47:57.077Z,1007.91
2018-12-04T10:48:57.073Z,1007.94
2018-12-04T10:49:57.067Z,1007.94
2018-12-04T10:50:57.060Z,1007.97
2018-12-04T10:51:57.053Z,1007.93
2018-12-04T10:52:57.041Z,1007.95
2018-12-04T10:53:57.044Z,1007.94
2018-12-04T10:54:57.048Z,1007.97
2018-12-04T10:55:57.046Z,1007.93
2018-12-04T10:56:57.030Z,1008.00
2018-12-04T10:57:57.028Z,1008.00
2018-12-04T10:58:57.024Z,1008.02
2018-12-04T10:59:57.025Z,1008.02
2018-12-04T11:00:57.027Z,1008.01
2018-12-04T11:01:57.006Z,1008.02
2018-12-04T11:02:57.020Z,1008.01
2018-12-04T11:03:56.995Z,1008.03
2018-12-04T11:04:56.990Z,1008.04
2018-12-04T11:05:56.983Z,1008.03
2018-12-04T11:06:56.990Z,1008.02
2018-12-04T11:07:56.990Z,1008.02
2018-12-04T11:08:56.987Z,1008.03
2018-12-04T11:09:56.966Z,1007.99
2018-12-04T11:10:56.960Z,1008.05
2018-12-04T11:11:56.963Z,1008.03
2018-12-04T11:12:56.954Z,1008.07
2018-12-04T11:13:56.943Z,1008.07
2018-12-04T11:14:56.953Z,1008.09
2018-12-04T11:15:56.944Z,1008.04
2018-12-04T11:16:56.930Z,1008.08
2018-12-04T11:17:56.936Z,1008.06
2018-12-04T11:18:56.926Z,1008.09
2018-12-04T11:19:56.920Z,1008.13
2018-12-04T11:20:56.918Z,1008.12
2018-12-04T11:21:56.919Z,1008.11
2018-12-04T11:22:56.914Z,1008.12
2018-12-04T11:23:56.916Z,1008.11
2018-12-04T11:24:56.896Z,1008.14
2018-12-04T11:25:56.886Z,1008.07
2018-12-04T11:26:56.898Z,1008.06
2018-12-04T11:27:56.878Z,1008.06
2018-12-04T11:28:56.876Z,1008.10
2018-12-04T11:29:56.872Z,1008.13
2018-12-04T11:30:56.863Z,1008.11
2018-12-04T11:31:56.862Z,1008.15
2018-12-04T11:32:56.862Z,1008.12
2018-12-04T11:33:56.849Z,1008.13
2018-12-04T11:34:56.850Z,1008.11
2018-12-04T11:35:56.842Z,1008.17
2018-12-04T11:36:56.843Z,1008.17
2018-12-04T11:37:56.841Z,1008.14
2018-12-04T11:38:56.827Z,1008.15
2018-12-04T11:39:56.818Z,1008.17
2018-12-04T11:40:56.815Z,1008.19
2018-12-04T11:41:56.821Z,1008.18
2018-12-04T11:42:56.812Z,1008.26
2018-12-04T11:43:56.807Z,1008.24
2018-12-04T11:44:56.821Z,1008.27
2018-12-04T11:45:56.803Z,1008.27
2018-12-04T11:46:56.806Z,1008.24
2018-12-04T11:47:56.782Z,1008.31
2018-12-04T11:48:56.786Z,1008.31
2018-12-04T11:49:56.777Z,1008.33
2018-12-04T11:51:05.416Z,1008.33
2018-12-04T11:52:50.171Z,1008.34
